Time;durP1;ratioP1;P1;durP2;ratioP2;P2;SDS_P1;SDS_P2;PMS_P1;PMS_P2;Temp;Humidity;BMP_temperature;BMP_pressure;BME280_temperature;BME280_humidity;BME280_pressure;Samples;Min_cycle;Max_cycle;Signal;HPM_P1;HPM_P2
2023/10/07 00:00:24;;;;;;;;;;;;;;;18.79;57.15;100234.59;10324733;28;1906;-72
2023/10/07 00:05:28;;;;;;;;;;;;;;;18.77;56.82;100228.50;10325295;28;806;-73
2023/10/07 00:10:25;;;;;;;;;;;;;;;18.78;57.22;100243.41;10324480;28;814;-73
2023/10/07 00:15:21;;;;;;;;;;;;;;;18.80;57.18;100269.78;10323569;28;1247;-73
2023/10/07 00:20:18;;;;;;;;;;;;;;;18.81;57.48;100272.38;10324229;28;1894;-73
2023/10/07 00:25:19;;;;;;;;;;;;;;;18.77;57.24;100275.19;10326882;28;802;-72
2023/10/07 00:30:22;;;;;;;;;;;;;;;18.77;57.55;100280.47;10331413;28;842;-72
2023/10/07 00:35:20;;;;;;;;;;;;;;;18.77;57.35;100280.47;10331212;28;901;-73
2023/10/07 00:40:31;;;;;;;;;;;;;;;18.78;57.44;100290.09;10331763;28;1949;-73
2023/10/07 00:45:27;;;;;;;;;;;;;;;18.77;57.66;100277.81;10330878;28;821;-73
2023/10/07 00:50:23;;;;;;;;;;;;;;;18.77;57.75;100285.75;10330089;28;1275;-73
2023/10/07 00:55:22;;;;;;;;;;;;;;;18.74;57.31;100283.19;10331439;28;838;-73
2023/10/07 01:05:21;;;;;;;;;;;;;;;18.73;57.61;100255.94;10330856;28;797;-73
2023/10/07 01:10:24;;;;;;;;;;;;;;;18.73;57.63;100255.06;10330678;28;775;-73
2023/10/07 01:20:16;;;;;;;;;;;;;;;18.72;57.74;100253.34;10330238;28;1898;-73
2023/10/07 01:25:18;;;;;;;;;;;;;;;18.72;57.92;100242.78;10330088;28;794;-73
2023/10/07 01:30:16;;;;;;;;;;;;;;;18.70;57.67;100224.34;10330236;28;858;-73
2023/10/07 01:35:12;;;;;;;;;;;;;;;18.69;57.68;100212.06;10328080;28;990;-73
2023/10/07 01:40:11;;;;;;;;;;;;;;;18.69;57.75;100209.44;10328523;28;1898;-73
2023/10/07 01:45:22;;;;;;;;;;;;;;;18.71;57.77;100209.38;10328722;28;956;-73
2023/10/07 01:50:18;;;;;;;;;;;;;;;18.70;57.85;100226.13;10328827;28;1309;-73
2023/10/07 01:55:14;;;;;;;;;;;;;;;18.71;57.89;100220.81;10328686;28;882;-73
2023/10/07 02:00:11;;;;;;;;;;;;;;;18.69;57.71;100232.34;10329289;28;1910;-73
2023/10/07 02:05:11;;;;;;;;;;;;;;;18.67;57.65;100250.88;10327748;28;989;-73
2023/10/07 02:10:08;;;;;;;;;;;;;;;18.66;57.83;100241.25;10327533;28;874;-73
2023/10/07 02:15:19;;;;;;;;;;;;;;;18.65;57.72;100228.94;10327348;28;814;-73
2023/10/07 02:20:38;;;;;;;;;;;;;;;18.63;57.80;100209.69;10327386;28;1898;-73
2023/10/07 02:25:36;;;;;;;;;;;;;;;18.63;57.88;100207.03;10327119;28;798;-73
2023/10/07 02:30:32;;;;;;;;;;;;;;;18.62;57.87;100214.06;10327433;28;897;-72
2023/10/07 02:35:30;;;;;;;;;;;;;;;18.64;57.89;100218.47;10327290;28;854;-73
2023/10/07 02:40:36;;;;;;;;;;;;;;;18.64;58.02;100223.75;10326305;28;1968;-72
2023/10/07 02:45:39;;;;;;;;;;;;;;;18.62;57.87;100229.91;10326244;28;819;-73
2023/10/07 02:50:39;;;;;;;;;;;;;;;18.61;57.95;100238.78;10326345;28;1175;-73
2023/10/07 02:55:46;;;;;;;;;;;;;;;18.63;58.10;100241.38;10326493;28;853;-72
2023/10/07 03:00:49;;;;;;;;;;;;;;;18.59;57.99;100240.59;10325373;28;1910;-72
2023/10/07 03:05:45;;;;;;;;;;;;;;;18.60;58.17;100246.75;10325658;28;878;-73
2023/10/07 03:10:44;;;;;;;;;;;;;;;18.59;58.11;100242.38;10326900;28;826;-73
2023/10/07 03:15:41;;;;;;;;;;;;;;;18.59;58.13;100230.03;10325451;28;875;-73
2023/10/07 03:20:58;;;;;;;;;;;;;;;18.57;58.10;100238.94;10325971;28;1898;-72
2023/10/07 03:30:52;;;;;;;;;;;;;;;18.57;58.21;100236.31;10324738;28;823;-73
2023/10/07 03:40:56;;;;;;;;;;;;;;;18.57;57.99;100236.31;10325627;28;1955;-73
2023/10/07 03:45:51;;;;;;;;;;;;;;;18.56;58.03;100240.72;10324919;28;916;-73
2023/10/07 03:50:48;;;;;;;;;;;;;;;18.55;58.26;100233.75;10325999;28;1349;-73
2023/10/07 03:55:44;;;;;;;;;;;;;;;18.55;58.31;100228.47;10324812;28;931;-73
2023/10/07 04:00:41;;;;;;;;;;;;;;;18.53;58.26;100219.72;10328304;28;1917;-73
2023/10/07 04:05:41;;;;;;;;;;;;;;;18.53;58.15;100214.47;10332341;28;973;-72
2023/10/07 04:10:43;;;;;;;;;;;;;;;18.53;58.32;100211.81;10332244;28;865;-72
2023/10/07 04:15:51;;;;;;;;;;;;;;;18.50;58.31;100209.31;10332389;28;831;-73
2023/10/07 04:25:47;;;;;;;;;;;;;;;18.47;58.43;100217.34;10332337;28;845;-73
2023/10/07 04:30:47;;;;;;;;;;;;;;;18.58;58.22;100216.94;10331600;28;921;-72
2023/10/07 04:35:49;;;;;;;;;;;;;;;18.64;57.97;100214.03;10331355;28;778;-72
2023/10/07 04:41:30;;;;;;;;;;;;;;;18.67;57.87;100207.78;10331086;28;1948;-73
2023/10/07 04:46:28;;;;;;;;;;;;;;;18.67;57.83;100199.84;10330085;28;1673;-73
2023/10/07 04:51:36;;;;;;;;;;;;;;;18.71;57.64;100209.38;10330727;28;1001;-73
2023/10/07 04:56:33;;;;;;;;;;;;;;;18.75;57.70;100208.34;10331622;28;876;-72
2023/10/07 05:01:31;;;;;;;;;;;;;;;18.77;57.49;100198.59;10330268;28;1977;-72
2023/10/07 05:06:28;;;;;;;;;;;;;;;18.78;57.38;100200.31;10330484;28;861;-72
2023/10/07 05:11:26;;;;;;;;;;;;;;;18.82;57.44;100212.47;10330219;28;871;-72
2023/10/07 05:16:22;;;;;;;;;;;;;;;18.85;57.40;100204.44;10329757;28;883;-73
2023/10/07 05:21:20;;;;;;;;;;;;;;;18.90;57.48;100198.97;10330251;28;1957;-72
2023/10/07 05:26:17;;;;;;;;;;;;;;;18.91;57.35;100209.44;10329966;28;793;-72
2023/10/07 05:31:17;;;;;;;;;;;;;;;18.92;57.24;100197.97;10329235;28;942;-82
2023/10/07 05:36:20;;;;;;;;;;;;;;;18.90;57.32;100198.97;10329266;28;866;-81
2023/10/07 05:41:16;;;;;;;;;;;;;;;18.94;57.22;100203.19;10329505;28;1906;-72
2023/10/07 05:46:12;;;;;;;;;;;;;;;18.98;57.16;100204.78;10328413;28;905;-72
2023/10/07 05:51:08;;;;;;;;;;;;;;;18.99;57.17;100222.34;10328935;28;1202;-72
2023/10/07 05:56:07;;;;;;;;;;;;;;;18.99;57.19;100203.84;10328284;28;1181;-72
2023/10/07 06:01:03;;;;;;;;;;;;;;;18.99;57.37;100199.47;10328546;28;1963;-72
2023/10/07 06:05:59;;;;;;;;;;;;;;;18.98;57.42;100200.38;10327763;28;842;-72
2023/10/07 06:10:56;;;;;;;;;;;;;;;18.96;57.45;100211.91;10327557;28;902;-72
2023/10/07 06:15:52;;;;;;;;;;;;;;;18.95;57.49;100208.41;10327395;28;779;-73
2023/10/07 06:20:47;;;;;;;;;;;;;;;18.92;57.67;100205.91;10323909;28;1951;-72
2023/10/07 06:25:49;;;;;;;;;;;;;;;18.93;57.84;100218.19;10326224;28;766;-72
2023/10/07 06:30:45;;;;;;;;;;;;;;;18.91;57.65;100221.81;10326899;28;897;-72
2023/10/07 06:35:41;;;;;;;;;;;;;;;18.89;57.80;100221.88;10326864;28;763;-72
2023/10/07 06:40:40;;;;;;;;;;;;;;;18.89;57.96;100229.81;10327067;28;1959;-72
2023/10/07 06:45:36;;;;;;;;;;;;;;;18.88;58.05;100230.72;10326135;28;902;-73
2023/10/07 06:50:32;;;;;;;;;;;;;;;18.90;58.21;100241.22;10325729;28;1263;-73
2023/10/07 06:55:33;;;;;;;;;;;;;;;18.94;58.26;100248.09;10326075;28;798;-73
2023/10/07 07:00:46;;;;;;;;;;;;;;;18.93;58.06;100241.94;10326226;28;1977;-73
2023/10/07 07:05:45;;;;;;;;;;;;;;;18.96;58.05;100233.91;10325796;28;872;-73
2023/10/07 07:10:41;;;;;;;;;;;;;;;18.99;58.10;100231.16;10326234;28;835;-73
2023/10/07 07:15:37;;;;;;;;;;;;;;;19.00;57.94;100248.72;10325560;28;894;-73
2023/10/07 07:20:48;;;;;;;;;;;;;;;18.98;58.06;100255.84;10325279;28;1902;-72
2023/10/07 07:25:49;;;;;;;;;;;;;;;18.97;58.02;100243.56;10325288;28;870;-72
2023/10/07 07:30:45;;;;;;;;;;;;;;;18.98;58.10;100250.56;10322962;28;1097;-72
2023/10/07 07:35:43;;;;;;;;;;;;;;;19.02;57.91;100238.97;10330639;28;969;-72
2023/10/07 07:40:41;;;;;;;;;;;;;;;19.03;57.86;100230.09;10333445;28;1957;-73
2023/10/07 07:45:37;;;;;;;;;;;;;;;19.04;57.76;100236.22;10331643;28;1083;-72
2023/10/07 07:50:35;;;;;;;;;;;;;;;19.03;57.78;100237.16;10326003;28;1307;-73
2023/10/07 07:55:32;;;;;;;;;;;;;;;19.03;57.99;100235.38;10333155;28;845;-72
2023/10/07 08:00:28;;;;;;;;;;;;;;;19.04;57.96;100234.44;10333170;28;1918;-73
2023/10/07 08:05:28;;;;;;;;;;;;;;;19.06;57.76;100242.31;10332523;28;790;-72
2023/10/07 08:10:24;;;;;;;;;;;;;;;19.07;57.77;100237.91;10331726;28;1171;-72
2023/10/07 08:15:23;;;;;;;;;;;;;;;19.08;57.84;100237.84;10331673;28;849;-73
2023/10/07 08:20:28;;;;;;;;;;;;;;;19.09;57.76;100250.13;10332684;28;1894;-72
2023/10/07 08:25:37;;;;;;;;;;;;;;;19.10;57.69;100261.53;10331976;28;930;-73
2023/10/07 08:30:39;;;;;;;;;;;;;;;19.09;57.62;100247.47;10333097;28;821;-72
2023/10/07 08:35:35;;;;;;;;;;;;;;;19.09;57.77;100241.34;10330794;28;871;-73
2023/10/07 08:40:43;;;;;;;;;;;;;;;19.11;57.80;100235.06;10331139;28;1965;-72
2023/10/07 08:45:39;;;;;;;;;;;;;;;19.12;57.58;100242.06;10330342;28;870;-73
2023/10/07 08:50:36;;;;;;;;;;;;;;;19.13;57.64;100232.38;10330812;28;1102;-73
2023/10/07 08:55:39;;;;;;;;;;;;;;;19.12;57.77;100226.22;10330883;28;837;-72
2023/10/07 09:00:39;;;;;;;;;;;;;;;19.16;57.75;100242.81;10330523;28;1910;-72
2023/10/07 09:05:34;;;;;;;;;;;;;;;19.16;57.62;100232.25;10330899;28;778;-72
2023/10/07 09:10:30;;;;;;;;;;;;;;;19.16;57.63;100230.47;10331442;28;917;-74
2023/10/07 09:15:26;;;;;;;;;;;;;;;19.14;57.84;100224.38;10329313;28;876;-72
2023/10/07 09:20:31;;;;;;;;;;;;;;;19.12;57.91;100231.50;10329632;28;1894;-72
2023/10/07 09:25:33;;;;;;;;;;;;;;;19.12;57.94;100233.28;10328879;28;847;-74
2023/10/07 09:30:35;;;;;;;;;;;;;;;19.10;57.99;100221.91;10329994;28;890;-74
2023/10/07 09:35:31;;;;;;;;;;;;;;;19.08;58.02;100227.28;10329229;28;944;-73
2023/10/07 09:46:03;;;;;;;;;;;;;;;19.08;58.01;100244.91;10203090;28;1470;-73
2023/10/07 09:50:59;;;;;;;;;;;;;;;19.08;58.04;100247.56;10296165;28;1429;-73
2023/10/07 09:55:56;;;;;;;;;;;;;;;19.05;58.20;100244.09;10328534;28;1656;-73
2023/10/07 10:01:04;;;;;;;;;;;;;;;19.05;57.99;100245.91;10326822;28;1979;-73
2023/10/07 10:06:03;;;;;;;;;;;;;;;19.05;58.09;100241.47;10327858;28;1085;-73
2023/10/07 10:10:59;;;;;;;;;;;;;;;19.04;58.19;100226.53;10327592;28;977;-73
2023/10/07 10:15:55;;;;;;;;;;;;;;;19.03;58.28;100216.88;10327777;28;861;-73
2023/10/07 10:20:51;;;;;;;;;;;;;;;19.03;58.26;100222.16;10327143;28;1959;-73
2023/10/07 10:25:48;;;;;;;;;;;;;;;19.04;58.20;100223.03;10327355;28;1020;-74
2023/10/07 10:30:44;;;;;;;;;;;;;;;19.03;58.19;100231.88;10326926;28;1017;-73
2023/10/07 10:35:42;;;;;;;;;;;;;;;19.02;58.32;100217.81;10327175;28;861;-73
2023/10/07 10:40:39;;;;;;;;;;;;;;;19.00;58.31;100232.88;10326388;28;1894;-73
2023/10/07 10:45:35;;;;;;;;;;;;;;;19.00;58.38;100226.72;10326886;28;822;-73
2023/10/07 10:50:32;;;;;;;;;;;;;;;18.98;58.59;100218.84;10327947;28;1136;-73
2023/10/07 10:55:29;;;;;;;;;;;;;;;18.98;58.53;100210.06;10326819;28;884;-73
2023/10/07 11:00:25;;;;;;;;;;;;;;;19.00;58.58;100195.88;10326444;28;1918;-73
2023/10/07 11:05:21;;;;;;;;;;;;;;;18.99;58.42;100204.75;10325923;28;959;-73
2023/10/07 11:10:22;;;;;;;;;;;;;;;19.01;58.46;100200.22;10325326;28;878;-73
2023/10/07 11:15:24;;;;;;;;;;;;;;;19.01;58.46;100197.59;10325619;28;786;-73
2023/10/07 11:20:20;;;;;;;;;;;;;;;19.02;58.57;100191.41;10326129;28;1901;-73
2023/10/07 11:25:16;;;;;;;;;;;;;;;19.04;58.49;100184.25;10325598;28;810;-73
2023/10/07 11:30:12;;;;;;;;;;;;;;;19.07;58.46;100175.34;10325961;28;877;-73
2023/10/07 11:35:08;;;;;;;;;;;;;;;19.07;58.56;100172.69;10325303;28;917;-73
2023/10/07 11:40:04;;;;;;;;;;;;;;;19.05;58.51;100166.63;10325654;28;1945;-73
2023/10/07 11:45:02;;;;;;;;;;;;;;;19.05;58.51;100164.00;10326309;28;916;-74
2023/10/07 11:50:00;;;;;;;;;;;;;;;19.04;58.54;100165.75;10325399;28;1080;-73
2023/10/07 11:54:56;;;;;;;;;;;;;;;19.04;58.63;100168.41;10325718;28;786;-73
2023/10/07 11:59:52;;;;;;;;;;;;;;;19.04;58.55;100162.25;10324540;28;1914;-70
2023/10/07 12:04:48;;;;;;;;;;;;;;;19.08;58.51;100173.56;10324737;28;775;-74
2023/10/07 12:09:47;;;;;;;;;;;;;;;19.10;58.59;100166.41;10324560;28;1169;-76
2023/10/07 12:14:43;;;;;;;;;;;;;;;19.11;58.58;100166.38;10323721;28;973;-77
2023/10/07 12:19:41;;;;;;;;;;;;;;;19.12;58.44;100167.22;10324303;28;1949;-74
2023/10/07 12:24:37;;;;;;;;;;;;;;;19.10;58.62;100159.38;10331608;28;898;-74
2023/10/07 12:29:33;;;;;;;;;;;;;;;19.11;58.64;100170.81;10332085;28;867;-74
2023/10/07 12:34:30;;;;;;;;;;;;;;;19.11;58.57;100168.16;10332825;28;786;-74
2023/10/07 12:39:30;;;;;;;;;;;;;;;19.08;58.83;100168.28;10331686;28;822;-74
2023/10/07 12:44:26;;;;;;;;;;;;;;;19.11;58.67;100165.50;10330769;28;1894;-73
2023/10/07 12:49:23;;;;;;;;;;;;;;;19.11;58.68;100165.50;10330807;28;1465;-74
2023/10/07 12:54:19;;;;;;;;;;;;;;;19.15;58.72;100164.44;10331095;28;909;-74
2023/10/07 12:59:18;;;;;;;;;;;;;;;19.26;58.32;100178.94;10330949;28;892;-74
2023/10/07 13:04:14;;;;;;;;;;;;;;;19.39;57.94;100175.78;10330075;28;1967;-74
2023/10/07 13:09:16;;;;;;;;;;;;;;;19.53;57.83;100183.09;10330099;28;805;-75
2023/10/07 13:14:12;;;;;;;;;;;;;;;19.64;57.40;100175.56;10329827;28;883;-74
2023/10/07 13:19:09;;;;;;;;;;;;;;;19.74;57.33;100165.47;10329729;28;765;-74
2023/10/07 13:24:07;;;;;;;;;;;;;;;19.83;56.98;100180.91;10329344;28;1890;-74
2023/10/07 13:29:09;;;;;;;;;;;;;;;19.96;56.87;100189.16;10329217;28;1617;-74
2023/10/07 13:34:07;;;;;;;;;;;;;;;20.04;56.62;100187.91;10330522;28;818;-74
2023/10/07 13:39:03;;;;;;;;;;;;;;;20.08;56.66;100181.53;10329630;28;797;-74
2023/10/07 13:43:59;;;;;;;;;;;;;;;20.15;56.38;100176.81;10329392;28;1945;-74
2023/10/07 13:48:55;;;;;;;;;;;;;;;20.19;56.25;100175.72;10329254;28;1101;-74
2023/10/07 13:54:21;;;;;;;;;;;;;;;20.26;56.29;100174.50;10328292;28;878;-74
2023/10/07 13:59:07;;;;;;;;;;;;;;;20.30;56.24;100160.22;10327305;28;1771;-73
2023/10/07 14:04:03;;;;;;;;;;;;;;;20.36;56.16;100153.78;10327846;28;1952;-74
2023/10/07 14:08:59;;;;;;;;;;;;;;;20.39;56.10;100148.31;10327697;28;849;-74
2023/10/07 14:13:54;;;;;;;;;;;;;;;20.45;55.92;100132.13;10328154;28;853;-74
2023/10/07 14:18:51;;;;;;;;;;;;;;;20.51;55.84;100130.97;10327296;28;849;-73
2023/10/07 14:23:48;;;;;;;;;;;;;;;20.54;55.84;100126.44;10327477;28;1893;-74
2023/10/07 14:28:44;;;;;;;;;;;;;;;20.63;55.65;100135.72;10327430;28;835;-73
2023/10/07 14:33:40;;;;;;;;;;;;;;;20.67;55.52;100108.16;10327514;28;857;-73
2023/10/07 14:38:37;;;;;;;;;;;;;;;20.69;55.59;100106.25;10326577;28;917;-73
2023/10/07 14:43:33;;;;;;;;;;;;;;;20.57;55.98;100110.41;10325060;28;1894;-73
2023/10/07 14:48:29;;;;;;;;;;;;;;;20.39;56.38;100113.06;10325942;28;1099;-73
2023/10/07 14:53:26;;;;;;;;;;;;;;;20.21;56.65;100138.63;10326073;28;833;-73
2023/10/07 14:58:21;;;;;;;;;;;;;;;20.13;56.96;100125.72;10326453;28;802;-73
2023/10/07 15:03:18;;;;;;;;;;;;;;;20.04;57.25;100144.69;10325979;28;1992;-74
2023/10/07 15:08:16;;;;;;;;;;;;;;;20.02;57.19;100131.53;10327068;28;863;-73
2023/10/07 15:13:13;;;;;;;;;;;;;;;20.06;57.17;100113.72;10325666;28;1648;-73
2023/10/07 15:18:12;;;;;;;;;;;;;;;20.00;57.20;100116.66;10326351;28;873;-73
2023/10/07 15:23:11;;;;;;;;;;;;;;;19.96;57.31;100123.00;10326071;28;1898;-74
2023/10/07 15:28:07;;;;;;;;;;;;;;;19.96;57.33;100118.56;10325924;28;787;-73
2023/10/07 15:33:03;;;;;;;;;;;;;;;20.17;56.75;100131.72;10325376;28;917;-73
2023/10/07 15:37:59;;;;;;;;;;;;;;;20.15;56.81;100129.19;10325153;28;961;-73
2023/10/07 15:42:55;;;;;;;;;;;;;;;20.05;57.22;100126.09;10325014;28;1953;-73
2023/10/07 15:47:53;;;;;;;;;;;;;;;20.01;57.20;100132.44;10325176;28;1208;-73
2023/10/07 15:52:49;;;;;;;;;;;;;;;19.90;57.64;100145.31;10324884;28;763;-73
2023/10/07 15:57:45;;;;;;;;;;;;;;;19.82;57.58;100169.47;10331174;28;803;-70
2023/10/07 16:02:42;;;;;;;;;;;;;;;19.77;57.76;100168.81;10332733;28;1970;-71
2023/10/07 16:07:38;;;;;;;;;;;;;;;19.74;57.81;100150.44;10333242;28;814;-71
2023/10/07 16:12:35;;;;;;;;;;;;;;;19.71;57.87;100134.72;10332335;28;1668;-73
2023/10/07 16:17:31;;;;;;;;;;;;;;;19.67;58.03;100133.97;10332300;28;1738;-74
2023/10/07 16:22:29;;;;;;;;;;;;;;;19.64;57.94;100122.66;10332458;28;1949;-73
2023/10/07 16:27:25;;;;;;;;;;;;;;;19.62;57.98;100121.88;10331798;28;918;-73
2023/10/07 16:32:21;;;;;;;;;;;;;;;19.59;58.11;100122.84;10331735;28;924;-69
2023/10/07 16:37:18;;;;;;;;;;;;;;;19.56;58.22;100130.94;10332744;28;941;-68
2023/10/07 16:42:14;;;;;;;;;;;;;;;19.54;58.09;100129.28;10331320;28;1956;-73
2023/10/07 16:47:09;;;;;;;;;;;;;;;19.52;58.09;100128.50;10331344;28;1344;-73
2023/10/07 16:52:06;;;;;;;;;;;;;;;19.50;58.13;100133.88;10331037;28;872;-73
2023/10/07 16:57:02;;;;;;;;;;;;;;;19.49;58.12;100150.63;10330710;28;1686;-73
2023/10/07 17:02:00;;;;;;;;;;;;;;;19.46;58.22;100167.47;10330542;28;1969;-73
2023/10/07 17:06:56;;;;;;;;;;;;;;;19.46;58.24;100193.94;10330378;28;929;-74
2023/10/07 17:11:53;;;;;;;;;;;;;;;19.45;58.20;100186.06;10330970;28;877;-73
2023/10/07 17:16:49;;;;;;;;;;;;;;;19.44;58.44;100195.81;10330058;28;771;-73
2023/10/07 17:21:47;;;;;;;;;;;;;;;19.42;58.26;100191.50;10329746;28;1906;-74
2023/10/07 17:26:43;;;;;;;;;;;;;;;19.42;58.24;100184.44;10329795;28;798;-73
2023/10/07 17:31:39;;;;;;;;;;;;;;;19.40;58.24;100199.50;10329429;28;845;-73
2023/10/07 17:36:36;;;;;;;;;;;;;;;19.40;58.17;100202.13;10330249;28;775;-73
2023/10/07 17:41:32;;;;;;;;;;;;;;;19.41;58.25;100192.41;10328896;28;1886;-74
2023/10/07 17:46:28;;;;;;;;;;;;;;;19.38;58.37;100195.19;10328759;28;1409;-73
2023/10/07 17:51:24;;;;;;;;;;;;;;;19.38;58.21;100196.03;10328556;28;1008;-73
2023/10/07 17:56:22;;;;;;;;;;;;;;;19.36;58.39;100186.47;10328417;28;1000;-73
2023/10/07 18:01:18;;;;;;;;;;;;;;;19.37;58.26;100189.06;10328646;28;1906;-73
2023/10/07 18:06:14;;;;;;;;;;;;;;;19.34;58.28;100191.81;10328046;28;923;-73
2023/10/07 18:11:11;;;;;;;;;;;;;;;19.34;58.23;100178.63;10327922;28;814;-73
2023/10/07 18:16:07;;;;;;;;;;;;;;;19.31;58.39;100178.75;10327698;28;888;-72
2023/10/07 18:21:03;;;;;;;;;;;;;;;19.32;58.35;100184.88;10326598;28;1890;-73
2023/10/07 18:25:58;;;;;;;;;;;;;;;19.33;58.43;100198.03;10327378;28;841;-73
2023/10/07 18:30:54;;;;;;;;;;;;;;;19.33;58.37;100187.44;10327140;28;766;-74
2023/10/07 18:35:50;;;;;;;;;;;;;;;19.33;58.50;100199.81;10326974;28;932;-73
2023/10/07 18:40:46;;;;;;;;;;;;;;;19.32;58.64;100204.25;10327218;28;1894;-73
2023/10/07 18:45:42;;;;;;;;;;;;;;;19.33;58.57;100202.47;10326713;28;876;-73
2023/10/07 18:50:38;;;;;;;;;;;;;;;19.31;58.52;100184.03;10327748;28;1267;-73
2023/10/07 18:55:34;;;;;;;;;;;;;;;19.32;58.54;100192.81;10327440;28;885;-73
2023/10/07 19:00:30;;;;;;;;;;;;;;;19.30;58.49;100202.59;10326190;28;1918;-73
2023/10/07 19:05:26;;;;;;;;;;;;;;;19.32;58.62;100208.69;10326606;28;865;-73
2023/10/07 19:10:22;;;;;;;;;;;;;;;19.30;58.62;100197.31;10325208;28;980;-73
2023/10/07 19:15:18;;;;;;;;;;;;;;;19.28;58.64;100178.84;10325729;28;919;-73
2023/10/07 19:20:14;;;;;;;;;;;;;;;19.29;58.58;100191.16;10326211;28;1957;-73
2023/10/07 19:25:13;;;;;;;;;;;;;;;19.28;58.54;100194.72;10325890;28;857;-73
2023/10/07 19:30:10;;;;;;;;;;;;;;;19.29;58.54;100190.31;10325775;28;841;-73
2023/10/07 19:35:05;;;;;;;;;;;;;;;19.28;58.50;100205.28;10325868;28;870;-73
2023/10/07 19:40:04;;;;;;;;;;;;;;;19.29;58.54;100190.31;10325184;28;1898;-68
2023/10/07 19:45:00;;;;;;;;;;;;;;;19.29;58.64;100188.53;10325143;28;948;-74
2023/10/07 19:49:56;;;;;;;;;;;;;;;19.27;58.66;100191.22;10325055;28;1163;-74
2023/10/07 19:54:53;;;;;;;;;;;;;;;19.28;58.65;100197.34;10324891;28;1103;-74
2023/10/07 19:59:49;;;;;;;;;;;;;;;19.28;58.62;100205.28;10324806;28;838;-74
2023/10/07 20:04:46;;;;;;;;;;;;;;;19.28;58.61;100200.00;10325051;28;1898;-73
2023/10/07 20:09:42;;;;;;;;;;;;;;;19.28;58.52;100205.28;10325247;28;916;-74
2023/10/07 20:14:38;;;;;;;;;;;;;;;19.27;58.62;100208.88;10323989;28;1032;-74
2023/10/07 20:19:34;;;;;;;;;;;;;;;19.27;58.69;100215.00;10325074;28;770;-73
2023/10/07 20:24:30;;;;;;;;;;;;;;;19.27;58.69;100206.22;10324408;28;1961;-73
2023/10/07 20:29:26;;;;;;;;;;;;;;;19.28;58.52;100226.44;10325046;28;851;-73
2023/10/07 20:34:22;;;;;;;;;;;;;;;19.27;58.69;100244.06;10324593;28;945;-74
2023/10/07 20:39:19;;;;;;;;;;;;;;;19.27;58.71;100269.66;10324830;28;901;-73
2023/10/07 20:44:15;;;;;;;;;;;;;;;19.28;58.63;100258.16;10330176;28;1960;-73
2023/10/07 20:49:13;;;;;;;;;;;;;;;19.25;58.67;100247.72;10330596;28;1593;-74
2023/10/07 20:54:09;;;;;;;;;;;;;;;19.26;58.56;100244.16;10331726;28;948;-73
2023/10/07 20:59:07;;;;;;;;;;;;;;;19.26;58.39;100244.16;10330764;28;861;-73
2023/10/07 21:04:03;;;;;;;;;;;;;;;19.25;58.68;100239.78;10330341;28;1909;-73
2023/10/07 21:08:59;;;;;;;;;;;;;;;19.26;58.57;100234.44;10330444;28;969;-73
2023/10/07 21:13:57;;;;;;;;;;;;;;;19.24;58.73;100220.44;10329680;28;1272;-74
2023/10/07 21:18:56;;;;;;;;;;;;;;;19.24;58.55;100219.56;10330005;28;978;-73
2023/10/07 21:23:52;;;;;;;;;;;;;;;19.25;58.68;100226.56;10330424;28;1897;-74
2023/10/07 21:28:48;;;;;;;;;;;;;;;19.25;58.64;100251.19;10329710;28;798;-74
2023/10/07 21:33:44;;;;;;;;;;;;;;;19.26;58.64;100263.50;10329557;28;794;-73
2023/10/07 21:38:40;;;;;;;;;;;;;;;19.24;58.76;100269.78;10329151;28;850;-74
2023/10/07 21:43:36;;;;;;;;;;;;;;;19.24;58.74;100262.72;10329744;28;1902;-73
2023/10/07 21:48:32;;;;;;;;;;;;;;;19.25;58.72;100268.84;10329611;28;1291;-73
2023/10/07 21:53:28;;;;;;;;;;;;;;;19.23;58.67;100254.81;10328673;28;928;-73
2023/10/07 21:58:25;;;;;;;;;;;;;;;19.23;58.67;100228.41;10328507;28;874;-73
2023/10/07 22:03:21;;;;;;;;;;;;;;;19.23;58.65;100239.84;10328213;28;1913;-73
2023/10/07 22:08:17;;;;;;;;;;;;;;;19.21;58.76;100236.41;10327536;28;1014;-73
2023/10/07 22:13:17;;;;;;;;;;;;;;;19.23;58.72;100252.19;10328560;28;875;-73
2023/10/07 22:18:12;;;;;;;;;;;;;;;19.23;58.76;100261.00;10327650;28;841;-73
2023/10/07 22:23:09;;;;;;;;;;;;;;;19.23;58.93;100268.03;10326743;28;1894;-72
2023/10/07 22:28:06;;;;;;;;;;;;;;;19.23;58.78;100274.22;10327098;28;1052;-72
2023/10/07 22:33:04;;;;;;;;;;;;;;;19.22;58.68;100268.97;10327643;28;926;-72
2023/10/07 22:37:59;;;;;;;;;;;;;;;19.21;58.66;100268.13;10326692;28;935;-72
2023/10/07 22:42:56;;;;;;;;;;;;;;;19.21;58.74;100280.50;10326572;28;1906;-73
2023/10/07 22:47:54;;;;;;;;;;;;;;;19.21;58.77;100273.41;10326712;28;1270;-72
2023/10/07 22:52:54;;;;;;;;;;;;;;;19.21;58.69;100269.91;10325904;28;955;-72
2023/10/07 22:57:50;;;;;;;;;;;;;;;19.21;58.61;100251.41;10326235;28;782;-73
2023/10/07 23:02:52;;;;;;;;;;;;;;;19.19;58.65;100272.59;10325909;28;1914;-73
2023/10/07 23:07:51;;;;;;;;;;;;;;;19.20;58.82;100276.09;10325429;28;868;-73
2023/10/07 23:12:47;;;;;;;;;;;;;;;19.20;58.82;100281.38;10325726;28;871;-73
2023/10/07 23:17:51;;;;;;;;;;;;;;;19.19;58.82;100274.41;10325810;28;766;-72
2023/10/07 23:22:47;;;;;;;;;;;;;;;19.19;58.82;100282.31;10325504;28;1898;-73
2023/10/07 23:27:43;;;;;;;;;;;;;;;19.19;58.86;100292.91;10326075;28;901;-73
2023/10/07 23:32:43;;;;;;;;;;;;;;;19.19;58.90;100303.47;10325231;28;973;-72
2023/10/07 23:37:40;;;;;;;;;;;;;;;19.19;58.59;100306.09;10325134;28;869;-73
2023/10/07 23:42:36;;;;;;;;;;;;;;;19.18;58.82;100304.41;10325682;28;1897;-73
2023/10/07 23:47:32;;;;;;;;;;;;;;;19.18;58.94;100309.69;10324946;28;1215;-73
2023/10/07 23:52:37;;;;;;;;;;;;;;;19.17;58.72;100311.44;10324422;28;1067;-73
2023/10/07 23:57:33;;;;;;;;;;;;;;;19.17;58.83;100307.94;10325168;28;829;-72
